Time;durP1;ratioP1;P1;durP2;ratioP2;P2;SDS_P1;SDS_P2;PMS_P1;PMS_P2;Temp;Humidity;BMP_temperature;BMP_pressure;BME280_temperature;BME280_humidity;BME280_pressure;Samples;Min_cycle;Max_cycle;Signal;HPM_P1;HPM_P2
2023/09/10 00:01:20;;;;;;;17.38;13.07;;;;;;;;;;5093638;28;20036;-67
2023/09/10 00:03:45;;;;;;;14.00;12.60;;;;;;;;;;5090998;28;20401;-67
2023/09/10 00:06:10;;;;;;;13.50;12.20;;;;;;;;;;5089289;28;20270;-67
2023/09/10 00:08:36;;;;;;;16.00;13.73;;;;;;;;;;5090097;28;20274;-67
2023/09/10 00:11:01;;;;;;;15.00;13.03;;;;;;;;;;5090848;28;20266;-67
2023/09/10 00:13:27;;;;;;;14.88;12.68;;;;;;;;;;5090490;28;20320;-67
2023/09/10 00:15:53;;;;;;;15.00;10.80;;;;;;;;;;5090753;28;20028;-67
2023/09/10 00:18:19;;;;;;;14.40;11.57;;;;;;;;;;5091377;28;20024;-67
2023/09/10 00:20:44;;;;;;;14.88;12.65;;;;;;;;;;5091668;28;20527;-67
2023/09/10 00:23:10;;;;;;;15.18;12.80;;;;;;;;;;5085406;28;20031;-67
2023/09/10 00:25:35;;;;;;;14.88;13.48;;;;;;;;;;5092867;28;20008;-67
2023/09/10 00:28:00;;;;;;;14.65;13.25;;;;;;;;;;5084065;28;20039;-67
2023/09/10 00:30:26;;;;;;;13.02;11.82;;;;;;;;;;5039185;28;20036;-67
2023/09/10 00:32:51;;;;;;;14.48;12.32;;;;;;;;;;5048831;28;20374;-67
2023/09/10 00:35:17;;;;;;;12.17;10.80;;;;;;;;;;5082037;28;20054;-67
2023/09/10 00:37:42;;;;;;;13.80;11.70;;;;;;;;;;5084380;28;20262;-67
2023/09/10 00:40:08;;;;;;;13.70;12.35;;;;;;;;;;5088398;28;20023;-66
2023/09/10 00:42:33;;;;;;;15.43;13.88;;;;;;;;;;5084516;28;20028;-67
2023/09/10 00:44:59;;;;;;;15.27;13.77;;;;;;;;;;5075570;28;20039;-67
2023/09/10 00:47:24;;;;;;;14.98;13.48;;;;;;;;;;5074125;28;20070;-67
2023/09/10 00:49:50;;;;;;;14.93;12.70;;;;;;;;;;5074210;28;20020;-68
2023/09/10 00:52:16;;;;;;;15.38;13.95;;;;;;;;;;5073186;28;20051;-68
2023/09/10 00:54:41;;;;;;;15.25;13.65;;;;;;;;;;5073835;28;20099;-68
2023/09/10 00:57:07;;;;;;;15.45;14.05;;;;;;;;;;5075611;28;20104;-68
2023/09/10 00:59:33;;;;;;;15.02;13.52;;;;;;;;;;5092979;28;20024;-68
2023/09/10 01:01:58;;;;;;;15.18;13.52;;;;;;;;;;5090578;28;20083;-68
2023/09/10 01:04:23;;;;;;;15.48;13.23;;;;;;;;;;5080631;28;20119;-68
2023/09/10 01:06:50;;;;;;;16.33;14.23;;;;;;;;;;5080690;28;20020;-68
2023/09/10 01:09:16;;;;;;;18.48;13.85;;;;;;;;;;5075181;28;20020;-68
2023/09/10 01:11:59;;;;;;;15.83;14.27;;;;;;;;;;5074392;28;20025;-68
2023/09/10 01:14:42;;;;;;;16.17;14.60;;;;;;;;;;5082335;28;20839;-68
2023/09/10 01:17:13;;;;;;;16.40;14.70;;;;;;;;;;5075336;28;20024;-68
2023/09/10 01:19:39;;;;;;;15.70;14.10;;;;;;;;;;5074138;28;20024;-68
2023/09/10 01:22:23;;;;;;;16.30;14.65;;;;;;;;;;5074552;28;20024;-68
2023/09/10 01:24:49;;;;;;;19.27;14.63;;;;;;;;;;5073331;28;20052;-68
2023/09/10 01:27:15;;;;;;;16.88;15.18;;;;;;;;;;5072409;28;20024;-68
2023/09/10 01:29:40;;;;;;;17.35;15.50;;;;;;;;;;5073601;28;20069;-68
2023/09/10 01:32:09;;;;;;;16.25;14.43;;;;;;;;;;5084206;28;20352;-67
2023/09/10 01:34:45;;;;;;;15.88;14.30;;;;;;;;;;5041261;28;20069;-68
2023/09/10 01:37:16;;;;;;;14.98;12.90;;;;;;;;;;5081912;28;20131;-68
2023/09/10 01:39:43;;;;;;;15.23;13.52;;;;;;;;;;5086239;28;20032;-68
2023/09/10 01:42:09;;;;;;;14.18;12.77;;;;;;;;;;5080504;28;20038;-68
2023/09/10 01:44:35;;;;;;;15.30;13.73;;;;;;;;;;5092393;28;20107;-68
2023/09/10 01:47:00;;;;;;;15.43;13.95;;;;;;;;;;5086945;28;20023;-68
2023/09/10 01:49:26;;;;;;;15.65;13.23;;;;;;;;;;5081945;28;20074;-68
2023/09/10 01:51:51;;;;;;;16.17;13.68;;;;;;;;;;5077183;28;20047;-68
2023/09/10 01:54:16;;;;;;;18.57;14.40;;;;;;;;;;5078833;28;20054;-68
2023/09/10 01:56:42;;;;;;;15.43;13.82;;;;;;;;;;5081893;28;20340;-68
2023/09/10 01:59:07;;;;;;;16.45;13.70;;;;;;;;;;5084718;28;20031;-68
2023/09/10 02:01:32;;;;;;;16.60;14.90;;;;;;;;;;5091506;28;20125;-68
2023/09/10 02:03:57;;;;;;;16.97;15.27;;;;;;;;;;5084483;28;20283;-68
2023/09/10 02:06:22;;;;;;;17.73;15.53;;;;;;;;;;5080038;28;20281;-68
2023/09/10 02:08:48;;;;;;;16.83;11.90;;;;;;;;;;5073114;28;20781;-68
2023/09/10 02:11:13;;;;;;;13.73;11.95;;;;;;;;;;5086091;28;20353;-68
2023/09/10 02:13:38;;;;;;;16.75;14.02;;;;;;;;;;5072766;28;20016;-68
2023/09/10 02:16:04;;;;;;;16.50;14.82;;;;;;;;;;5081547;28;20038;-68
2023/09/10 02:18:29;;;;;;;15.77;14.38;;;;;;;;;;5072480;28;20383;-68
2023/09/10 02:20:54;;;;;;;17.40;15.23;;;;;;;;;;5072844;28;20028;-68
2023/09/10 02:23:20;;;;;;;15.47;13.87;;;;;;;;;;5072352;28;20071;-68
2023/09/10 02:25:45;;;;;;;15.13;12.00;;;;;;;;;;5079953;28;20277;-68
2023/09/10 02:28:10;;;;;;;13.77;12.27;;;;;;;;;;5072898;28;20020;-68
2023/09/10 02:30:36;;;;;;;14.53;13.13;;;;;;;;;;5074010;28;20271;-66
2023/09/10 02:33:01;;;;;;;13.70;12.30;;;;;;;;;;5085585;28;20319;-67
2023/09/10 02:35:26;;;;;;;15.40;12.43;;;;;;;;;;5081793;28;20317;-67
2023/09/10 02:37:51;;;;;;;14.40;12.97;;;;;;;;;;5085895;28;20270;-67
2023/09/10 02:40:17;;;;;;;15.50;13.90;;;;;;;;;;5090748;28;20334;-67
2023/09/10 02:42:42;;;;;;;14.02;12.52;;;;;;;;;;5090166;28;20012;-67
2023/09/10 02:45:08;;;;;;;19.08;12.82;;;;;;;;;;5085799;28;20023;-67
2023/09/10 02:47:33;;;;;;;14.43;12.93;;;;;;;;;;5084001;28;21135;-66
2023/09/10 02:49:58;;;;;;;13.93;12.40;;;;;;;;;;5071209;28;20135;-67
2023/09/10 02:52:24;;;;;;;16.35;14.23;;;;;;;;;;5089169;28;20315;-67
2023/09/10 02:54:50;;;;;;;15.30;13.40;;;;;;;;;;5090347;28;20352;-67
2023/09/10 02:57:15;;;;;;;14.40;12.93;;;;;;;;;;5088065;28;20031;-67
2023/09/10 02:59:40;;;;;;;13.50;12.20;;;;;;;;;;5091276;28;20359;-67
2023/09/10 03:02:06;;;;;;;13.73;12.43;;;;;;;;;;5073938;28;20349;-67
2023/09/10 03:04:31;;;;;;;15.93;12.03;;;;;;;;;;5090371;28;20312;-67
2023/09/10 03:06:56;;;;;;;16.50;12.33;;;;;;;;;;5082724;28;20327;-66
2023/09/10 03:09:21;;;;;;;12.63;11.43;;;;;;;;;;5086855;28;20320;-66
2023/09/10 03:11:47;;;;;;;15.10;12.93;;;;;;;;;;5086273;28;20055;-66
2023/09/10 03:14:12;;;;;;;14.25;12.77;;;;;;;;;;5086840;28;20278;-66
2023/09/10 03:16:40;;;;;;;14.35;12.95;;;;;;;;;;5086493;28;20363;-66
2023/09/10 03:19:06;;;;;;;15.77;12.82;;;;;;;;;;5085730;28;20020;-66
2023/09/10 03:21:31;;;;;;;14.15;12.50;;;;;;;;;;5071663;28;20801;-66
2023/09/10 03:23:56;;;;;;;15.60;12.30;;;;;;;;;;5047134;28;20866;-67
2023/09/10 03:26:22;;;;;;;15.15;12.90;;;;;;;;;;5042772;28;20028;-66
2023/09/10 03:28:47;;;;;;;15.00;11.63;;;;;;;;;;5040806;28;20024;-67
2023/09/10 03:31:13;;;;;;;13.60;12.25;;;;;;;;;;5052897;28;20746;-66
2023/09/10 03:33:39;;;;;;;15.85;13.25;;;;;;;;;;5051561;28;20028;-66
2023/09/10 03:36:05;;;;;;;17.55;12.90;;;;;;;;;;5088526;28;20107;-66
2023/09/10 03:38:30;;;;;;;15.73;11.57;;;;;;;;;;5074631;28;20017;-67
2023/09/10 03:40:56;;;;;;;13.90;12.40;;;;;;;;;;5087328;28;20043;-66
2023/09/10 03:43:21;;;;;;;14.50;13.00;;;;;;;;;;5091512;28;20282;-66
2023/09/10 03:45:47;;;;;;;14.85;13.20;;;;;;;;;;5090623;28;20027;-67
2023/09/10 03:48:13;;;;;;;15.02;13.45;;;;;;;;;;5090039;28;20031;-66
2023/09/10 03:50:38;;;;;;;15.77;13.70;;;;;;;;;;5092243;28;20023;-66
2023/09/10 03:53:03;;;;;;;15.82;13.75;;;;;;;;;;5088533;28;20078;-66
2023/09/10 03:55:28;;;;;;;14.63;13.07;;;;;;;;;;5090764;28;20032;-66
2023/09/10 03:57:54;;;;;;;13.77;12.38;;;;;;;;;;5090557;28;20265;-67
2023/09/10 04:00:19;;;;;;;15.17;13.37;;;;;;;;;;5088923;28;20063;-66
2023/09/10 04:02:44;;;;;;;15.73;13.07;;;;;;;;;;5085034;28;20340;-66
2023/09/10 04:05:11;;;;;;;18.40;13.90;;;;;;;;;;5081134;28;20029;-66
2023/09/10 04:07:36;;;;;;;15.38;13.77;;;;;;;;;;5082636;28;20024;-66
2023/09/10 04:10:02;;;;;;;15.95;14.32;;;;;;;;;;5082259;28;20111;-66
2023/09/10 04:12:28;;;;;;;17.60;14.48;;;;;;;;;;5083980;28;20098;-66
2023/09/10 04:14:53;;;;;;;16.35;14.65;;;;;;;;;;5082779;28;20066;-66
2023/09/10 04:17:18;;;;;;;16.15;13.07;;;;;;;;;;5086834;28;20442;-66
2023/09/10 04:19:43;;;;;;;14.93;13.43;;;;;;;;;;5087163;28;20008;-66
2023/09/10 04:22:09;;;;;;;20.13;15.50;;;;;;;;;;5092616;28;20381;-66
2023/09/10 04:24:34;;;;;;;17.67;15.82;;;;;;;;;;5086316;28;20073;-67
2023/09/10 04:26:59;;;;;;;15.23;13.73;;;;;;;;;;5087860;28;20110;-67
2023/09/10 04:29:25;;;;;;;18.27;15.43;;;;;;;;;;5092073;28;20760;-66
2023/09/10 04:31:50;;;;;;;16.58;14.85;;;;;;;;;;5087988;28;20674;-67
2023/09/10 04:34:15;;;;;;;15.93;14.23;;;;;;;;;;5088911;28;20111;-67
2023/09/10 04:36:41;;;;;;;17.52;15.77;;;;;;;;;;5085863;28;20428;-66
2023/09/10 04:39:09;;;;;;;16.83;15.05;;;;;;;;;;5087750;28;20032;-67
2023/09/10 04:41:35;;;;;;;15.80;14.18;;;;;;;;;;5074049;28;20028;-67
2023/09/10 04:44:00;;;;;;;17.90;15.88;;;;;;;;;;5092008;28;20027;-67
2023/09/10 04:46:27;;;;;;;18.17;15.10;;;;;;;;;;5082386;28;20085;-67
2023/09/10 04:48:52;;;;;;;19.65;17.65;;;;;;;;;;5086633;28;20059;-67
2023/09/10 04:51:17;;;;;;;17.38;15.55;;;;;;;;;;5083571;28;20457;-67
2023/09/10 04:53:44;;;;;;;17.30;15.48;;;;;;;;;;5088030;28;20027;-67
2023/09/10 04:56:09;;;;;;;19.67;16.10;;;;;;;;;;5083711;28;20020;-67
2023/09/10 04:58:34;;;;;;;17.92;16.02;;;;;;;;;;5087350;28;20374;-67
2023/09/10 05:01:00;;;;;;;16.80;14.95;;;;;;;;;;5083787;28;20054;-67
2023/09/10 05:03:25;;;;;;;20.97;18.77;;;;;;;;;;5082149;28;20088;-67
2023/09/10 05:05:57;;;;;;;19.88;17.45;;;;;;;;;;5089675;28;20310;-67
2023/09/10 05:08:22;;;;;;;18.90;17.17;;;;;;;;;;5081265;28;20406;-67
2023/09/10 05:10:48;;;;;;;19.00;17.03;;;;;;;;;;5081301;28;20040;-67
2023/09/10 05:13:13;;;;;;;21.10;18.95;;;;;;;;;;5089368;28;20610;-67
2023/09/10 05:15:39;;;;;;;21.57;19.27;;;;;;;;;;5080082;28;20108;-67
2023/09/10 05:18:04;;;;;;;20.73;18.83;;;;;;;;;;5081776;28;20275;-67
2023/09/10 05:20:30;;;;;;;19.25;17.35;;;;;;;;;;5079446;28;20278;-66
2023/09/10 05:22:55;;;;;;;20.70;17.52;;;;;;;;;;5081285;28;20035;-66
2023/09/10 05:25:20;;;;;;;20.47;18.57;;;;;;;;;;5078480;28;20467;-66
2023/09/10 05:27:46;;;;;;;20.37;18.40;;;;;;;;;;5080368;28;20270;-66
2023/09/10 05:30:12;;;;;;;22.83;19.30;;;;;;;;;;5086576;28;20285;-66
2023/09/10 05:32:37;;;;;;;20.73;18.63;;;;;;;;;;5092233;28;20036;-67
2023/09/10 05:35:03;;;;;;;20.43;18.50;;;;;;;;;;5073451;28;20064;-68
2023/09/10 05:37:28;;;;;;;20.52;18.52;;;;;;;;;;5083921;28;20270;-68
2023/09/10 05:39:53;;;;;;;20.33;18.30;;;;;;;;;;5083771;28;20028;-68
2023/09/10 05:42:19;;;;;;;19.93;17.83;;;;;;;;;;5088097;28;20096;-65
2023/09/10 05:44:44;;;;;;;19.80;17.90;;;;;;;;;;5081330;28;20281;-68
2023/09/10 05:47:09;;;;;;;20.42;18.20;;;;;;;;;;5082194;28;20263;-67
2023/09/10 05:49:35;;;;;;;21.88;19.42;;;;;;;;;;5083538;28;20451;-67
2023/09/10 05:52:00;;;;;;;21.80;19.52;;;;;;;;;;5085781;28;20035;-67
2023/09/10 05:54:26;;;;;;;21.25;19.05;;;;;;;;;;5075276;28;20099;-67
2023/09/10 05:56:51;;;;;;;20.20;18.27;;;;;;;;;;5078856;28;20055;-68
2023/09/10 05:59:16;;;;;;;19.77;17.67;;;;;;;;;;5082150;28;20286;-66
2023/09/10 06:01:41;;;;;;;19.80;17.73;;;;;;;;;;5090348;28;20619;-66
2023/09/10 06:04:06;;;;;;;18.87;16.80;;;;;;;;;;5091162;28;20274;-66
2023/09/10 06:06:32;;;;;;;19.87;17.80;;;;;;;;;;5090244;28;20312;-66
2023/09/10 06:08:57;;;;;;;19.10;17.10;;;;;;;;;;5091105;28;20285;-66
2023/09/10 06:11:22;;;;;;;18.90;17.17;;;;;;;;;;5090039;28;20491;-68
2023/09/10 06:13:47;;;;;;;18.77;16.87;;;;;;;;;;5082580;28;20309;-67
2023/09/10 06:16:13;;;;;;;18.08;16.27;;;;;;;;;;5083671;28;20347;-67
2023/09/10 06:18:38;;;;;;;19.90;17.80;;;;;;;;;;5090916;28;20494;-67
2023/09/10 06:21:03;;;;;;;21.13;18.87;;;;;;;;;;5090091;28;20294;-67
2023/09/10 06:23:28;;;;;;;20.17;18.15;;;;;;;;;;5090628;28;20278;-67
2023/09/10 06:25:54;;;;;;;19.05;17.13;;;;;;;;;;5089229;28;20032;-67
2023/09/10 06:28:20;;;;;;;20.33;18.20;;;;;;;;;;5073386;28;20436;-67
2023/09/10 06:30:45;;;;;;;21.88;18.42;;;;;;;;;;5090491;28;20020;-67
2023/09/10 06:33:10;;;;;;;22.40;18.03;;;;;;;;;;5086858;28;20044;-67
2023/09/10 06:35:36;;;;;;;20.67;17.45;;;;;;;;;;5071791;28;20274;-67
2023/09/10 06:38:01;;;;;;;19.98;18.17;;;;;;;;;;5085141;28;20024;-67
2023/09/10 06:40:26;;;;;;;17.45;15.45;;;;;;;;;;5072083;28;20086;-66
2023/09/10 06:42:52;;;;;;;17.63;15.57;;;;;;;;;;5071269;28;20458;-66
2023/09/10 06:45:17;;;;;;;16.35;14.65;;;;;;;;;;5082063;28;20020;-66
2023/09/10 06:47:42;;;;;;;15.93;14.43;;;;;;;;;;5090447;28;20024;-66
2023/09/10 06:50:07;;;;;;;15.60;14.05;;;;;;;;;;5081256;28;20271;-66
2023/09/10 06:52:33;;;;;;;16.35;14.20;;;;;;;;;;5084862;28;20025;-66
2023/09/10 06:54:58;;;;;;;14.27;12.87;;;;;;;;;;5071855;28;20074;-66
2023/09/10 06:57:23;;;;;;;13.63;11.17;;;;;;;;;;5074979;28;20269;-66
2023/09/10 06:59:48;;;;;;;12.02;10.75;;;;;;;;;;5089674;28;20338;-66
2023/09/10 07:02:14;;;;;;;15.17;11.23;;;;;;;;;;5081357;28;20111;-66
2023/09/10 07:04:47;;;;;;;13.33;10.83;;;;;;;;;;5079036;28;20317;-66
2023/09/10 07:07:12;;;;;;;11.43;10.20;;;;;;;;;;5077699;28;20328;-66
2023/09/10 07:09:38;;;;;;;11.88;10.65;;;;;;;;;;5078331;28;20024;-66
2023/09/10 07:12:06;;;;;;;10.93;9.75;;;;;;;;;;5080625;28;20035;-66
2023/09/10 07:14:31;;;;;;;14.65;9.75;;;;;;;;;;5078232;28;20056;-66
2023/09/10 07:16:56;;;;;;;11.10;9.90;;;;;;;;;;5083372;28;20059;-66
2023/09/10 07:19:21;;;;;;;10.10;8.80;;;;;;;;;;5078832;28;20270;-66
2023/09/10 07:21:47;;;;;;;9.97;8.07;;;;;;;;;;5084357;28;20368;-66
2023/09/10 07:24:12;;;;;;;11.10;9.07;;;;;;;;;;5079296;28;20286;-66
2023/09/10 07:26:37;;;;;;;14.98;8.40;;;;;;;;;;5079393;28;20274;-66
2023/09/10 07:29:04;;;;;;;11.02;8.63;;;;;;;;;;5083928;28;20020;-66
2023/09/10 07:31:29;;;;;;;9.70;7.72;;;;;;;;;;5086545;28;20058;-66
2023/09/10 07:33:55;;;;;;;13.32;8.82;;;;;;;;;;5083396;28;20463;-66
2023/09/10 07:36:20;;;;;;;10.85;8.18;;;;;;;;;;5074496;28;20517;-66
2023/09/10 07:38:45;;;;;;;11.77;8.23;;;;;;;;;;5084967;28;20028;-66
2023/09/10 07:41:10;;;;;;;10.00;8.77;;;;;;;;;;5080589;28;20386;-66
2023/09/10 07:43:35;;;;;;;11.17;10.03;;;;;;;;;;5083852;28;20037;-66
2023/09/10 07:46:01;;;;;;;12.77;9.20;;;;;;;;;;5076605;28;20087;-66
2023/09/10 07:48:26;;;;;;;12.80;8.30;;;;;;;;;;5086299;28;20369;-66
2023/09/10 07:50:57;;;;;;;10.53;8.27;;;;;;;;;;5080809;28;20382;-66
2023/09/10 07:53:23;;;;;;;9.30;8.13;;;;;;;;;;5077135;28;20302;-66
2023/09/10 07:55:49;;;;;;;13.63;8.95;;;;;;;;;;5085994;28;20043;-66
2023/09/10 07:58:14;;;;;;;11.27;8.93;;;;;;;;;;5084102;28;20020;-66
2023/09/10 08:00:40;;;;;;;10.43;8.20;;;;;;;;;;5093774;28;20032;-66
2023/09/10 08:03:06;;;;;;;11.20;8.35;;;;;;;;;;5091605;28;20278;-66
2023/09/10 08:05:33;;;;;;;12.50;8.10;;;;;;;;;;5092715;28;20055;-66
2023/09/10 08:08:03;;;;;;;10.30;8.00;;;;;;;;;;5091979;28;20351;-66
2023/09/10 08:10:34;;;;;;;9.77;8.75;;;;;;;;;;5085854;28;20032;-66
2023/09/10 08:13:00;;;;;;;10.82;8.98;;;;;;;;;;5081757;28;20495;-66
2023/09/10 08:15:26;;;;;;;9.57;8.60;;;;;;;;;;5078982;28;20940;-66
2023/09/10 08:17:53;;;;;;;10.87;8.70;;;;;;;;;;5078146;28;20089;-66
2023/09/10 08:20:18;;;;;;;11.68;8.65;;;;;;;;;;5078255;28;20281;-66
2023/09/10 08:22:43;;;;;;;13.00;9.00;;;;;;;;;;5081704;28;20027;-66
2023/09/10 08:25:09;;;;;;;10.87;8.57;;;;;;;;;;5085172;28;20275;-65
2023/09/10 08:27:35;;;;;;;9.30;7.97;;;;;;;;;;5081268;28;20255;-66
2023/09/10 08:30:01;;;;;;;12.70;8.85;;;;;;;;;;5087741;28;20021;-66
2023/09/10 08:32:26;;;;;;;10.45;8.25;;;;;;;;;;5070085;28;20023;-66
2023/09/10 08:34:51;;;;;;;11.93;8.43;;;;;;;;;;5078985;28;20115;-66
2023/09/10 08:37:17;;;;;;;10.00;8.33;;;;;;;;;;5092578;28;20772;-66
2023/09/10 08:39:42;;;;;;;10.90;8.83;;;;;;;;;;5090520;28;20269;-66
2023/09/10 08:42:11;;;;;;;9.50;8.48;;;;;;;;;;5091523;28;20286;-66
2023/09/10 08:44:38;;;;;;;11.63;7.65;;;;;;;;;;5089511;28;20036;-66
2023/09/10 08:47:04;;;;;;;10.15;8.02;;;;;;;;;;5090766;28;20019;-66
2023/09/10 08:49:32;;;;;;;8.43;7.07;;;;;;;;;;5089548;28;20518;-66
2023/09/10 08:51:57;;;;;;;8.90;7.75;;;;;;;;;;5092631;28;20144;-66
2023/09/10 08:54:22;;;;;;;9.60;6.25;;;;;;;;;;5089533;28;20016;-66
2023/09/10 08:56:48;;;;;;;9.97;6.90;;;;;;;;;;5091720;28;20023;-66
2023/09/10 08:59:14;;;;;;;9.95;7.75;;;;;;;;;;5091589;28;20274;-66
2023/09/10 09:01:39;;;;;;;11.25;7.50;;;;;;;;;;5082218;28;20028;-66
2023/09/10 09:04:04;;;;;;;8.20;7.37;;;;;;;;;;5077595;28;20032;-66
2023/09/10 09:06:31;;;;;;;10.10;7.82;;;;;;;;;;5083357;28;20761;-65
2023/09/10 09:08:59;;;;;;;9.15;6.75;;;;;;;;;;5079772;28;20846;-66
2023/09/10 09:11:25;;;;;;;11.10;6.75;;;;;;;;;;5086675;28;20081;-66
2023/09/10 09:13:52;;;;;;;10.95;7.07;;;;;;;;;;5082277;28;20032;-66
2023/09/10 09:16:19;;;;;;;12.23;7.03;;;;;;;;;;5085449;28;20038;-66
2023/09/10 09:18:45;;;;;;;10.02;6.22;;;;;;;;;;5071791;28;20123;-66
2023/09/10 09:21:20;;;;;;;8.85;6.50;;;;;;;;;;5071575;28;20033;-66
2023/09/10 09:23:49;;;;;;;10.60;7.68;;;;;;;;;;5078800;28;20020;-65
2023/09/10 09:26:14;;;;;;;9.68;6.53;;;;;;;;;;5087345;28;20051;-66
2023/09/10 09:28:40;;;;;;;9.63;6.18;;;;;;;;;;5078496;28;20070;-66
2023/09/10 09:31:11;;;;;;;9.47;6.60;;;;;;;;;;5075963;28;20469;-67
2023/09/10 09:33:37;;;;;;;9.18;6.40;;;;;;;;;;5079945;28;20274;-66
2023/09/10 09:36:09;;;;;;;8.57;6.35;;;;;;;;;;5070241;28;20381;-66
2023/09/10 09:38:34;;;;;;;8.38;6.60;;;;;;;;;;5078964;28;20063;-66
2023/09/10 09:41:04;;;;;;;12.50;6.80;;;;;;;;;;5080834;28;20490;-66
2023/09/10 09:43:31;;;;;;;10.98;6.78;;;;;;;;;;5071726;28;20035;-66
2023/09/10 09:45:56;;;;;;;12.63;7.00;;;;;;;;;;5079894;28;20024;-66
2023/09/10 09:48:22;;;;;;;8.45;6.28;;;;;;;;;;5082357;28;20073;-66
2023/09/10 09:50:47;;;;;;;8.02;6.43;;;;;;;;;;5087754;28;20444;-66
2023/09/10 09:53:13;;;;;;;10.45;6.57;;;;;;;;;;5086306;28;20019;-66
2023/09/10 09:55:40;;;;;;;11.23;5.72;;;;;;;;;;5084129;28;20032;-66
2023/09/10 09:58:05;;;;;;;8.68;6.07;;;;;;;;;;5086995;28;20103;-66
2023/09/10 10:00:32;;;;;;;10.90;6.53;;;;;;;;;;5084531;28;20444;-66
2023/09/10 10:02:58;;;;;;;9.02;6.15;;;;;;;;;;5071208;28;20046;-66
2023/09/10 10:05:24;;;;;;;9.48;6.13;;;;;;;;;;5072513;28;20051;-66
2023/09/10 10:07:50;;;;;;;10.60;6.32;;;;;;;;;;5090472;28;20359;-66
2023/09/10 10:10:15;;;;;;;9.82;5.95;;;;;;;;;;5077374;28;20055;-65
2023/09/10 10:12:43;;;;;;;9.35;6.15;;;;;;;;;;5090210;28;20027;-65
2023/09/10 10:15:08;;;;;;;9.30;5.95;;;;;;;;;;5071402;28;20028;-62
2023/09/10 10:17:34;;;;;;;8.38;5.85;;;;;;;;;;5090070;28;20024;-65
2023/09/10 10:20:01;;;;;;;9.15;6.05;;;;;;;;;;5087748;28;20059;-66
2023/09/10 10:22:26;;;;;;;10.10;6.63;;;;;;;;;;5082200;28;20031;-66
2023/09/10 10:24:51;;;;;;;8.10;5.90;;;;;;;;;;5084286;28;20395;-66
2023/09/10 10:27:18;;;;;;;12.45;5.40;;;;;;;;;;5081754;28;20035;-65
2023/09/10 10:29:44;;;;;;;6.07;5.18;;;;;;;;;;5075088;28;20417;-66
2023/09/10 10:32:32;;;;;;;9.68;5.80;;;;;;;;;;5083435;28;20123;-67
2023/09/10 10:34:59;;;;;;;9.73;5.95;;;;;;;;;;5079580;28;20029;-67
2023/09/10 10:37:43;;;;;;;7.28;6.15;;;;;;;;;;5090162;28;20048;-68
2023/09/10 10:40:12;;;;;;;8.85;5.72;;;;;;;;;;5078664;28;20024;-67
2023/09/10 10:42:47;;;;;;;9.73;5.60;;;;;;;;;;5088803;28;20020;-67
2023/09/10 10:45:15;;;;;;;8.70;4.78;;;;;;;;;;5081005;28;20099;-67
2023/09/10 10:47:41;;;;;;;10.60;6.13;;;;;;;;;;5080801;28;20020;-66
2023/09/10 10:50:10;;;;;;;11.00;5.50;;;;;;;;;;5081480;28;20074;-65
2023/09/10 10:52:38;;;;;;;7.00;5.32;;;;;;;;;;5080321;28;20074;-64
2023/09/10 10:55:04;;;;;;;7.70;5.03;;;;;;;;;;5080936;28;20061;-64
2023/09/10 10:57:29;;;;;;;8.63;5.53;;;;;;;;;;5086066;28;20055;-64
2023/09/10 10:59:55;;;;;;;5.45;4.90;;;;;;;;;;5087113;28;20044;-65
2023/09/10 11:02:24;;;;;;;9.40;5.18;;;;;;;;;;5085822;28;20043;-65
2023/09/10 11:04:58;;;;;;;8.68;5.18;;;;;;;;;;5088968;28;20477;-65
2023/09/10 11:07:24;;;;;;;8.52;5.35;;;;;;;;;;5086431;28;20028;-65
2023/09/10 11:09:49;;;;;;;10.10;5.25;;;;;;;;;;5088933;28;20632;-65
2023/09/10 11:12:15;;;;;;;7.63;4.85;;;;;;;;;;5089595;28;20059;-65
2023/09/10 11:14:58;;;;;;;9.32;4.68;;;;;;;;;;5089952;28;20036;-65
2023/09/10 11:17:25;;;;;;;8.20;4.78;;;;;;;;;;5077982;28;20494;-65
2023/09/10 11:19:50;;;;;;;8.60;5.57;;;;;;;;;;5085849;28;20483;-65
2023/09/10 11:22:15;;;;;;;6.57;5.03;;;;;;;;;;5087781;28;20039;-65
2023/09/10 11:24:41;;;;;;;6.95;4.10;;;;;;;;;;5087040;28;20278;-66
2023/09/10 11:27:22;;;;;;;8.17;4.67;;;;;;;;;;5088262;28;20067;-65
2023/09/10 11:30:06;;;;;;;7.07;4.85;;;;;;;;;;5086660;28;20501;-65
2023/09/10 11:32:31;;;;;;;8.38;3.83;;;;;;;;;;5090147;28;20027;-65
2023/09/10 11:35:15;;;;;;;7.25;3.45;;;;;;;;;;5088745;28;20028;-65
2023/09/10 11:37:41;;;;;;;6.00;4.40;;;;;;;;;;5077069;28;20407;-65
2023/09/10 11:40:07;;;;;;;9.10;3.92;;;;;;;;;;5083068;28;20093;-65
2023/09/10 11:42:33;;;;;;;6.50;3.80;;;;;;;;;;5070126;28;20032;-65
2023/09/10 11:44:58;;;;;;;6.65;4.03;;;;;;;;;;5069967;28;20073;-65
2023/09/10 11:47:26;;;;;;;6.87;4.57;;;;;;;;;;5070775;28;20078;-65
2023/09/10 11:49:59;;;;;;;8.73;3.60;;;;;;;;;;5073089;28;20490;-65
2023/09/10 11:52:24;;;;;;;6.60;4.00;;;;;;;;;;5054980;28;20086;-65
2023/09/10 11:54:49;;;;;;;8.20;3.87;;;;;;;;;;5073482;28;20545;-65
2023/09/10 11:57:17;;;;;;;7.47;3.45;;;;;;;;;;5072716;28;20028;-65
2023/09/10 11:59:48;;;;;;;8.10;3.50;;;;;;;;;;5085966;28;20119;-65
2023/09/10 12:02:14;;;;;;;5.07;3.42;;;;;;;;;;5091249;28;20112;-64
2023/09/10 12:04:39;;;;;;;5.87;3.40;;;;;;;;;;5093094;28;20112;-65
2023/09/10 12:07:04;;;;;;;4.93;3.10;;;;;;;;;;5090181;28;20070;-65
2023/09/10 12:09:30;;;;;;;5.00;3.10;;;;;;;;;;5092118;28;20038;-65
2023/09/10 12:11:57;;;;;;;5.70;3.83;;;;;;;;;;5090454;28;20027;-65
2023/09/10 12:14:23;;;;;;;5.97;3.30;;;;;;;;;;5081235;28;20028;-65
2023/09/10 12:16:48;;;;;;;6.82;3.72;;;;;;;;;;5078698;28;20100;-65
2023/09/10 12:19:14;;;;;;;4.50;3.17;;;;;;;;;;5073657;28;20028;-65
2023/09/10 12:21:43;;;;;;;6.03;3.40;;;;;;;;;;5074268;28;20040;-65
2023/09/10 12:24:09;;;;;;;4.63;3.33;;;;;;;;;;5092805;28;20073;-66
2023/09/10 12:26:34;;;;;;;7.10;3.38;;;;;;;;;;5091271;28;20032;-65
2023/09/10 12:29:00;;;;;;;8.53;3.50;;;;;;;;;;5084761;28;20052;-65
2023/09/10 12:31:25;;;;;;;8.90;3.60;;;;;;;;;;5087531;28;20266;-65
2023/09/10 12:33:51;;;;;;;8.75;3.58;;;;;;;;;;5082299;28;20025;-65
2023/09/10 12:36:16;;;;;;;5.90;3.55;;;;;;;;;;5087680;28;20040;-65
2023/09/10 12:38:41;;;;;;;4.93;3.23;;;;;;;;;;5091813;28;20421;-65
2023/09/10 12:41:07;;;;;;;5.15;3.30;;;;;;;;;;5091873;28;20290;-65
2023/09/10 12:43:32;;;;;;;5.82;3.30;;;;;;;;;;5083041;28;20016;-65
2023/09/10 12:45:57;;;;;;;8.27;3.13;;;;;;;;;;5072137;28;20021;-65
2023/09/10 12:48:23;;;;;;;4.43;3.00;;;;;;;;;;5080257;28;20278;-65
2023/09/10 12:50:49;;;;;;;7.25;3.40;;;;;;;;;;5089870;28;20052;-65
2023/09/10 12:53:14;;;;;;;7.00;3.30;;;;;;;;;;5090046;28;20020;-65
2023/09/10 12:55:43;;;;;;;5.57;3.50;;;;;;;;;;5090400;28;20508;-65
2023/09/10 12:58:12;;;;;;;6.22;3.55;;;;;;;;;;5090204;28;20047;-65
2023/09/10 13:00:37;;;;;;;4.88;3.45;;;;;;;;;;5084996;28;20028;-65
2023/09/10 13:03:03;;;;;;;7.32;2.90;;;;;;;;;;5072786;28;20024;-65
2023/09/10 13:05:28;;;;;;;9.32;3.90;;;;;;;;;;5074060;28;20029;-65
2023/09/10 13:07:54;;;;;;;8.83;4.03;;;;;;;;;;5073538;28;20387;-66
2023/09/10 13:10:19;;;;;;;6.90;4.13;;;;;;;;;;5078233;28;20055;-66
2023/09/10 13:12:45;;;;;;;5.85;3.67;;;;;;;;;;5075946;28;20020;-65
2023/09/10 13:15:11;;;;;;;6.10;3.72;;;;;;;;;;5079181;28;20031;-65
2023/09/10 13:17:37;;;;;;;7.30;3.47;;;;;;;;;;5075561;28;20120;-64
2023/09/10 13:20:02;;;;;;;4.97;3.67;;;;;;;;;;5078129;28;20034;-65
2023/09/10 13:22:28;;;;;;;7.70;3.70;;;;;;;;;;5084208;28;20106;-65
2023/09/10 13:24:54;;;;;;;4.87;3.30;;;;;;;;;;5081554;28;20501;-65
2023/09/10 13:27:20;;;;;;;6.55;3.03;;;;;;;;;;5087174;28;20783;-65
2023/09/10 13:29:45;;;;;;;6.03;3.30;;;;;;;;;;5082966;28;20024;-65
2023/09/10 13:32:10;;;;;;;4.97;3.27;;;;;;;;;;5092006;28;20045;-65
2023/09/10 13:34:35;;;;;;;5.20;3.35;;;;;;;;;;5086513;28;20040;-66
2023/09/10 13:37:03;;;;;;;6.15;2.97;;;;;;;;;;5085868;28;20025;-65
2023/09/10 13:39:31;;;;;;;6.07;3.30;;;;;;;;;;5079146;28;20027;-65
2023/09/10 13:41:56;;;;;;;6.28;3.40;;;;;;;;;;5075714;28;20040;-65
2023/09/10 13:44:22;;;;;;;5.70;3.00;;;;;;;;;;5087839;28;20012;-65
2023/09/10 13:46:47;;;;;;;9.10;3.77;;;;;;;;;;5077641;28;20017;-65
2023/09/10 13:49:12;;;;;;;4.93;3.13;;;;;;;;;;5088251;28;20269;-65
2023/09/10 13:51:38;;;;;;;5.53;3.70;;;;;;;;;;5089911;28;20312;-65
2023/09/10 13:54:03;;;;;;;6.77;3.90;;;;;;;;;;5044477;28;20123;-65
2023/09/10 13:56:31;;;;;;;9.40;3.38;;;;;;;;;;5037073;28;21313;-65
2023/09/10 13:58:56;;;;;;;4.78;3.03;;;;;;;;;;5047946;28;20084;-66
2023/09/10 14:01:21;;;;;;;9.90;3.47;;;;;;;;;;5060354;28;20027;-65
2023/09/10 14:03:47;;;;;;;6.83;3.37;;;;;;;;;;5083437;28;20099;-65
2023/09/10 14:06:12;;;;;;;6.43;3.40;;;;;;;;;;5082670;28;20035;-65
2023/09/10 14:08:37;;;;;;;5.67;3.67;;;;;;;;;;5084497;28;20920;-65
2023/09/10 14:11:03;;;;;;;5.40;3.20;;;;;;;;;;5082761;28;20403;-65
2023/09/10 14:13:28;;;;;;;5.25;3.17;;;;;;;;;;5076905;28;20265;-65
2023/09/10 14:15:53;;;;;;;7.28;3.60;;;;;;;;;;5089793;28;20020;-65
2023/09/10 14:18:18;;;;;;;5.87;3.90;;;;;;;;;;5089687;28;20016;-65
2023/09/10 14:20:44;;;;;;;6.20;3.90;;;;;;;;;;5090210;28;20467;-65
2023/09/10 14:23:09;;;;;;;6.33;3.17;;;;;;;;;;5087174;28;20087;-65